sensor_id;sensor_type;location;lat;lon;timestamp;P1;durP1;ratioP1;P2;durP2;ratioP2
52456;SDS011;38369;52.840;7.082;2023-11-22T00:00:10;13.75;;;9.10;;
52456;SDS011;38369;52.840;7.082;2023-11-22T00:02:37;16.42;;;9.63;;
52456;SDS011;38369;52.840;7.082;2023-11-22T00:05:04;17.40;;;10.30;;
52456;SDS011;38369;52.840;7.082;2023-11-22T00:07:31;13.43;;;9.40;;
52456;SDS011;38369;52.840;7.082;2023-11-22T00:09:57;13.20;;;9.43;;
52456;SDS011;38369;52.840;7.082;2023-11-22T00:12:23;15.60;;;9.48;;
52456;SDS011;38369;52.840;7.082;2023-11-22T00:14:49;15.48;;;9.57;;
52456;SDS011;38369;52.840;7.082;2023-11-22T00:17:16;17.15;;;10.18;;
52456;SDS011;38369;52.840;7.082;2023-11-22T00:19:42;15.25;;;9.70;;
52456;SDS011;38369;52.840;7.082;2023-11-22T00:22:09;15.82;;;10.10;;
52456;SDS011;38369;52.840;7.082;2023-11-22T00:24:40;16.45;;;9.85;;
52456;SDS011;38369;52.840;7.082;2023-11-22T00:27:06;15.13;;;9.25;;
52456;SDS011;38369;52.840;7.082;2023-11-22T00:29:33;13.85;;;9.10;;
52456;SDS011;38369;52.840;7.082;2023-11-22T00:31:59;17.50;;;10.75;;
52456;SDS011;38369;52.840;7.082;2023-11-22T00:34:25;18.65;;;10.90;;
52456;SDS011;38369;52.840;7.082;2023-11-22T00:36:51;21.10;;;11.38;;
52456;SDS011;38369;52.840;7.082;2023-11-22T00:39:17;20.83;;;11.73;;
52456;SDS011;38369;52.840;7.082;2023-11-22T00:41:44;18.67;;;11.23;;
52456;SDS011;38369;52.840;7.082;2023-11-22T00:44:10;21.92;;;12.13;;
52456;SDS011;38369;52.840;7.082;2023-11-22T00:46:36;17.75;;;11.40;;
52456;SDS011;38369;52.840;7.082;2023-11-22T00:49:02;18.13;;;11.57;;
52456;SDS011;38369;52.840;7.082;2023-11-22T00:51:29;18.92;;;12.13;;
52456;SDS011;38369;52.840;7.082;2023-11-22T00:53:56;23.80;;;12.65;;
52456;SDS011;38369;52.840;7.082;2023-11-22T00:56:22;19.75;;;12.35;;
52456;SDS011;38369;52.840;7.082;2023-11-22T00:58:48;20.00;;;11.18;;
52456;SDS011;38369;52.840;7.082;2023-11-22T01:01:15;20.98;;;11.82;;
52456;SDS011;38369;52.840;7.082;2023-11-22T01:03:41;17.55;;;11.90;;
52456;SDS011;38369;52.840;7.082;2023-11-22T01:06:07;17.83;;;11.23;;
52456;SDS011;38369;52.840;7.082;2023-11-22T01:08:34;19.88;;;11.48;;
52456;SDS011;38369;52.840;7.082;2023-11-22T01:11:02;15.68;;;10.50;;
52456;SDS011;38369;52.840;7.082;2023-11-22T01:13:28;17.80;;;10.50;;
52456;SDS011;38369;52.840;7.082;2023-11-22T01:15:54;15.25;;;9.77;;
52456;SDS011;38369;52.840;7.082;2023-11-22T01:18:20;13.30;;;8.70;;
52456;SDS011;38369;52.840;7.082;2023-11-22T01:20:47;16.17;;;9.45;;
52456;SDS011;38369;52.840;7.082;2023-11-22T01:23:14;16.08;;;10.40;;
52456;SDS011;38369;52.840;7.082;2023-11-22T01:25:40;16.48;;;10.60;;
52456;SDS011;38369;52.840;7.082;2023-11-22T01:28:06;13.70;;;9.48;;
52456;SDS011;38369;52.840;7.082;2023-11-22T01:30:32;16.00;;;9.95;;
52456;SDS011;38369;52.840;7.082;2023-11-22T01:32:58;15.82;;;9.95;;
52456;SDS011;38369;52.840;7.082;2023-11-22T01:35:24;18.23;;;11.13;;
52456;SDS011;38369;52.840;7.082;2023-11-22T01:37:50;16.75;;;10.35;;
52456;SDS011;38369;52.840;7.082;2023-11-22T01:40:17;18.13;;;10.65;;
52456;SDS011;38369;52.840;7.082;2023-11-22T01:42:44;16.85;;;11.20;;
52456;SDS011;38369;52.840;7.082;2023-11-22T01:45:11;17.77;;;11.85;;
52456;SDS011;38369;52.840;7.082;2023-11-22T01:47:38;23.20;;;13.75;;
52456;SDS011;38369;52.840;7.082;2023-11-22T01:50:06;21.90;;;12.20;;
52456;SDS011;38369;52.840;7.082;2023-11-22T01:52:33;17.95;;;11.60;;
52456;SDS011;38369;52.840;7.082;2023-11-22T01:55:00;16.33;;;9.70;;
52456;SDS011;38369;52.840;7.082;2023-11-22T01:57:26;15.07;;;10.18;;
52456;SDS011;38369;52.840;7.082;2023-11-22T01:59:52;18.08;;;11.30;;
52456;SDS011;38369;52.840;7.082;2023-11-22T02:02:18;18.30;;;11.40;;
52456;SDS011;38369;52.840;7.082;2023-11-22T02:04:45;17.88;;;10.73;;
52456;SDS011;38369;52.840;7.082;2023-11-22T02:07:11;19.10;;;11.00;;
52456;SDS011;38369;52.840;7.082;2023-11-22T02:09:37;20.58;;;11.05;;
52456;SDS011;38369;52.840;7.082;2023-11-22T02:12:03;23.05;;;11.70;;
52456;SDS011;38369;52.840;7.082;2023-11-22T02:14:29;23.38;;;12.35;;
52456;SDS011;38369;52.840;7.082;2023-11-22T02:16:55;20.23;;;12.98;;
52456;SDS011;38369;52.840;7.082;2023-11-22T02:19:23;22.80;;;13.00;;
52456;SDS011;38369;52.840;7.082;2023-11-22T02:21:49;25.13;;;14.45;;
52456;SDS011;38369;52.840;7.082;2023-11-22T02:24:17;20.50;;;12.65;;
52456;SDS011;38369;52.840;7.082;2023-11-22T02:26:46;21.50;;;12.65;;
52456;SDS011;38369;52.840;7.082;2023-11-22T02:29:12;24.42;;;14.25;;
52456;SDS011;38369;52.840;7.082;2023-11-22T02:31:41;21.10;;;13.38;;
52456;SDS011;38369;52.840;7.082;2023-11-22T02:34:10;17.65;;;11.75;;
52456;SDS011;38369;52.840;7.082;2023-11-22T02:36:37;16.77;;;10.80;;
52456;SDS011;38369;52.840;7.082;2023-11-22T02:39:03;13.75;;;9.07;;
52456;SDS011;38369;52.840;7.082;2023-11-22T02:41:29;15.02;;;10.30;;
52456;SDS011;38369;52.840;7.082;2023-11-22T02:43:55;14.68;;;9.65;;
52456;SDS011;38369;52.840;7.082;2023-11-22T02:46:22;17.85;;;10.75;;
52456;SDS011;38369;52.840;7.082;2023-11-22T02:48:48;14.88;;;10.07;;
52456;SDS011;38369;52.840;7.082;2023-11-22T02:51:14;15.38;;;10.05;;
52456;SDS011;38369;52.840;7.082;2023-11-22T02:53:42;12.13;;;8.60;;
52456;SDS011;38369;52.840;7.082;2023-11-22T02:56:10;51.72;;;11.15;;
52456;SDS011;38369;52.840;7.082;2023-11-22T02:58:36;78.80;;;12.93;;
52456;SDS011;38369;52.840;7.082;2023-11-22T03:01:02;18.33;;;9.07;;
52456;SDS011;38369;52.840;7.082;2023-11-22T03:03:28;15.88;;;10.93;;
52456;SDS011;38369;52.840;7.082;2023-11-22T03:05:54;20.27;;;11.82;;
52456;SDS011;38369;52.840;7.082;2023-11-22T03:08:20;18.17;;;11.68;;
52456;SDS011;38369;52.840;7.082;2023-11-22T03:10:46;15.32;;;9.93;;
52456;SDS011;38369;52.840;7.082;2023-11-22T03:13:12;13.88;;;10.10;;
52456;SDS011;38369;52.840;7.082;2023-11-22T03:15:38;16.20;;;10.23;;
52456;SDS011;38369;52.840;7.082;2023-11-22T03:18:05;13.68;;;9.18;;
52456;SDS011;38369;52.840;7.082;2023-11-22T03:20:31;13.30;;;8.98;;
52456;SDS011;38369;52.840;7.082;2023-11-22T03:22:57;15.23;;;9.65;;
52456;SDS011;38369;52.840;7.082;2023-11-22T03:25:24;12.65;;;8.80;;
52456;SDS011;38369;52.840;7.082;2023-11-22T03:27:50;12.40;;;8.98;;
52456;SDS011;38369;52.840;7.082;2023-11-22T03:30:16;17.27;;;10.18;;
52456;SDS011;38369;52.840;7.082;2023-11-22T03:32:43;18.00;;;10.30;;
52456;SDS011;38369;52.840;7.082;2023-11-22T03:35:09;18.27;;;11.15;;
52456;SDS011;38369;52.840;7.082;2023-11-22T03:37:36;20.25;;;12.32;;
52456;SDS011;38369;52.840;7.082;2023-11-22T03:40:02;19.70;;;12.38;;
52456;SDS011;38369;52.840;7.082;2023-11-22T03:42:29;19.95;;;13.43;;
52456;SDS011;38369;52.840;7.082;2023-11-22T03:44:55;21.27;;;12.50;;
52456;SDS011;38369;52.840;7.082;2023-11-22T03:47:24;19.38;;;12.43;;
52456;SDS011;38369;52.840;7.082;2023-11-22T03:49:50;18.50;;;11.55;;
52456;SDS011;38369;52.840;7.082;2023-11-22T03:52:16;15.70;;;10.55;;
52456;SDS011;38369;52.840;7.082;2023-11-22T03:54:42;15.43;;;10.52;;
52456;SDS011;38369;52.840;7.082;2023-11-22T03:57:08;18.88;;;11.65;;
52456;SDS011;38369;52.840;7.082;2023-11-22T03:59:34;22.50;;;13.32;;
52456;SDS011;38369;52.840;7.082;2023-11-22T04:02:00;24.45;;;13.65;;
52456;SDS011;38369;52.840;7.082;2023-11-22T04:04:26;22.40;;;13.95;;
52456;SDS011;38369;52.840;7.082;2023-11-22T04:06:52;22.55;;;13.75;;
52456;SDS011;38369;52.840;7.082;2023-11-22T04:09:18;21.58;;;12.52;;
52456;SDS011;38369;52.840;7.082;2023-11-22T04:11:45;22.40;;;11.82;;
52456;SDS011;38369;52.840;7.082;2023-11-22T04:14:14;18.33;;;11.02;;
52456;SDS011;38369;52.840;7.082;2023-11-22T04:16:40;19.90;;;12.43;;
52456;SDS011;38369;52.840;7.082;2023-11-22T04:19:06;22.38;;;12.85;;
52456;SDS011;38369;52.840;7.082;2023-11-22T04:21:32;22.63;;;12.38;;
52456;SDS011;38369;52.840;7.082;2023-11-22T04:23:59;23.20;;;12.98;;
52456;SDS011;38369;52.840;7.082;2023-11-22T04:26:25;17.42;;;11.93;;
52456;SDS011;38369;52.840;7.082;2023-11-22T04:28:51;20.35;;;13.77;;
52456;SDS011;38369;52.840;7.082;2023-11-22T04:31:18;22.63;;;13.50;;
52456;SDS011;38369;52.840;7.082;2023-11-22T04:33:44;24.50;;;13.40;;
52456;SDS011;38369;52.840;7.082;2023-11-22T04:36:10;19.20;;;12.52;;
52456;SDS011;38369;52.840;7.082;2023-11-22T04:38:37;19.52;;;12.85;;
52456;SDS011;38369;52.840;7.082;2023-11-22T04:41:03;20.00;;;12.00;;
52456;SDS011;38369;52.840;7.082;2023-11-22T04:43:29;25.77;;;12.23;;
52456;SDS011;38369;52.840;7.082;2023-11-22T04:45:55;24.52;;;12.48;;
52456;SDS011;38369;52.840;7.082;2023-11-22T04:48:21;26.58;;;13.52;;
52456;SDS011;38369;52.840;7.082;2023-11-22T04:50:47;20.00;;;12.20;;
52456;SDS011;38369;52.840;7.082;2023-11-22T04:53:13;22.83;;;13.20;;
52456;SDS011;38369;52.840;7.082;2023-11-22T04:55:38;22.90;;;13.43;;
52456;SDS011;38369;52.840;7.082;2023-11-22T04:58:04;20.60;;;12.07;;
52456;SDS011;38369;52.840;7.082;2023-11-22T05:00:31;21.42;;;12.90;;
52456;SDS011;38369;52.840;7.082;2023-11-22T05:02:57;26.33;;;13.25;;
52456;SDS011;38369;52.840;7.082;2023-11-22T05:05:23;23.95;;;14.95;;
52456;SDS011;38369;52.840;7.082;2023-11-22T05:07:49;31.58;;;17.27;;
52456;SDS011;38369;52.840;7.082;2023-11-22T05:10:15;25.60;;;16.48;;
52456;SDS011;38369;52.840;7.082;2023-11-22T05:12:42;26.98;;;16.48;;
52456;SDS011;38369;52.840;7.082;2023-11-22T05:15:09;28.83;;;16.13;;
52456;SDS011;38369;52.840;7.082;2023-11-22T05:17:36;28.08;;;17.20;;
52456;SDS011;38369;52.840;7.082;2023-11-22T05:20:02;29.17;;;16.92;;
52456;SDS011;38369;52.840;7.082;2023-11-22T05:22:29;28.50;;;17.00;;
52456;SDS011;38369;52.840;7.082;2023-11-22T05:24:55;29.85;;;16.67;;
52456;SDS011;38369;52.840;7.082;2023-11-22T05:27:21;30.40;;;16.42;;
52456;SDS011;38369;52.840;7.082;2023-11-22T05:29:47;25.23;;;15.52;;
52456;SDS011;38369;52.840;7.082;2023-11-22T05:32:13;26.42;;;15.90;;
52456;SDS011;38369;52.840;7.082;2023-11-22T05:34:39;25.67;;;15.10;;
52456;SDS011;38369;52.840;7.082;2023-11-22T05:37:05;26.00;;;14.88;;
52456;SDS011;38369;52.840;7.082;2023-11-22T05:39:32;24.52;;;15.02;;
52456;SDS011;38369;52.840;7.082;2023-11-22T05:41:58;25.00;;;15.00;;
52456;SDS011;38369;52.840;7.082;2023-11-22T05:44:24;26.02;;;14.38;;
52456;SDS011;38369;52.840;7.082;2023-11-22T05:46:51;22.75;;;14.65;;
52456;SDS011;38369;52.840;7.082;2023-11-22T05:49:17;26.40;;;15.25;;
52456;SDS011;38369;52.840;7.082;2023-11-22T05:51:42;29.15;;;16.60;;
52456;SDS011;38369;52.840;7.082;2023-11-22T05:54:09;30.15;;;16.02;;
52456;SDS011;38369;52.840;7.082;2023-11-22T05:56:37;30.42;;;18.13;;
52456;SDS011;38369;52.840;7.082;2023-11-22T05:59:03;29.00;;;18.20;;
52456;SDS011;38369;52.840;7.082;2023-11-22T06:01:29;28.95;;;17.33;;
52456;SDS011;38369;52.840;7.082;2023-11-22T06:03:55;27.65;;;15.90;;
52456;SDS011;38369;52.840;7.082;2023-11-22T06:06:21;29.58;;;17.17;;
52456;SDS011;38369;52.840;7.082;2023-11-22T06:08:48;29.95;;;17.00;;
52456;SDS011;38369;52.840;7.082;2023-11-22T06:11:14;29.48;;;17.65;;
52456;SDS011;38369;52.840;7.082;2023-11-22T06:13:40;31.67;;;17.25;;
52456;SDS011;38369;52.840;7.082;2023-11-22T06:16:07;29.05;;;16.30;;
52456;SDS011;38369;52.840;7.082;2023-11-22T06:18:34;32.50;;;17.42;;
52456;SDS011;38369;52.840;7.082;2023-11-22T06:21:05;31.80;;;17.42;;
52456;SDS011;38369;52.840;7.082;2023-11-22T06:23:31;33.97;;;18.30;;
52456;SDS011;38369;52.840;7.082;2023-11-22T06:25:58;31.92;;;17.92;;
52456;SDS011;38369;52.840;7.082;2023-11-22T06:28:24;28.63;;;16.13;;
52456;SDS011;38369;52.840;7.082;2023-11-22T06:30:50;26.02;;;16.25;;
52456;SDS011;38369;52.840;7.082;2023-11-22T06:33:16;27.40;;;15.88;;
52456;SDS011;38369;52.840;7.082;2023-11-22T06:35:42;29.70;;;17.95;;
52456;SDS011;38369;52.840;7.082;2023-11-22T06:38:08;30.35;;;16.52;;
52456;SDS011;38369;52.840;7.082;2023-11-22T06:40:34;33.60;;;17.30;;
52456;SDS011;38369;52.840;7.082;2023-11-22T06:43:00;31.02;;;16.77;;
52456;SDS011;38369;52.840;7.082;2023-11-22T06:45:29;31.70;;;17.85;;
52456;SDS011;38369;52.840;7.082;2023-11-22T06:47:56;29.45;;;17.27;;
52456;SDS011;38369;52.840;7.082;2023-11-22T06:50:23;33.42;;;18.90;;
52456;SDS011;38369;52.840;7.082;2023-11-22T06:52:49;30.05;;;18.67;;
52456;SDS011;38369;52.840;7.082;2023-11-22T06:55:17;33.05;;;18.35;;
52456;SDS011;38369;52.840;7.082;2023-11-22T06:57:43;38.78;;;20.70;;
52456;SDS011;38369;52.840;7.082;2023-11-22T07:00:09;31.45;;;18.15;;
52456;SDS011;38369;52.840;7.082;2023-11-22T07:02:37;31.23;;;17.70;;
52456;SDS011;38369;52.840;7.082;2023-11-22T07:05:04;39.83;;;19.63;;
52456;SDS011;38369;52.840;7.082;2023-11-22T07:07:36;35.03;;;20.00;;
52456;SDS011;38369;52.840;7.082;2023-11-22T07:10:02;31.55;;;18.58;;
52456;SDS011;38369;52.840;7.082;2023-11-22T07:12:30;36.03;;;19.48;;
52456;SDS011;38369;52.840;7.082;2023-11-22T07:14:56;31.13;;;18.65;;
52456;SDS011;38369;52.840;7.082;2023-11-22T07:17:22;32.05;;;19.25;;
52456;SDS011;38369;52.840;7.082;2023-11-22T07:19:48;35.80;;;19.02;;
52456;SDS011;38369;52.840;7.082;2023-11-22T07:22:14;36.45;;;21.15;;
52456;SDS011;38369;52.840;7.082;2023-11-22T07:24:41;37.55;;;20.55;;
52456;SDS011;38369;52.840;7.082;2023-11-22T07:27:09;32.33;;;19.42;;
52456;SDS011;38369;52.840;7.082;2023-11-22T07:29:37;34.28;;;19.00;;
52456;SDS011;38369;52.840;7.082;2023-11-22T07:32:03;33.58;;;20.02;;
52456;SDS011;38369;52.840;7.082;2023-11-22T07:34:29;45.65;;;20.92;;
52456;SDS011;38369;52.840;7.082;2023-11-22T07:36:55;38.25;;;20.73;;
52456;SDS011;38369;52.840;7.082;2023-11-22T07:39:21;34.47;;;19.45;;
52456;SDS011;38369;52.840;7.082;2023-11-22T07:41:52;34.15;;;19.45;;
52456;SDS011;38369;52.840;7.082;2023-11-22T07:44:18;42.72;;;20.20;;
52456;SDS011;38369;52.840;7.082;2023-11-22T07:46:44;41.33;;;19.90;;
52456;SDS011;38369;52.840;7.082;2023-11-22T07:49:11;40.95;;;21.45;;
52456;SDS011;38369;52.840;7.082;2023-11-22T07:51:38;37.72;;;20.55;;
52456;SDS011;38369;52.840;7.082;2023-11-22T07:54:05;39.28;;;20.05;;
52456;SDS011;38369;52.840;7.082;2023-11-22T07:56:31;44.17;;;21.85;;
52456;SDS011;38369;52.840;7.082;2023-11-22T07:58:57;39.00;;;20.75;;
52456;SDS011;38369;52.840;7.082;2023-11-22T08:01:24;45.78;;;21.75;;
52456;SDS011;38369;52.840;7.082;2023-11-22T08:03:53;45.60;;;21.73;;
52456;SDS011;38369;52.840;7.082;2023-11-22T08:06:20;34.05;;;19.83;;
52456;SDS011;38369;52.840;7.082;2023-11-22T08:08:46;40.45;;;21.60;;
52456;SDS011;38369;52.840;7.082;2023-11-22T08:11:12;40.53;;;21.70;;
52456;SDS011;38369;52.840;7.082;2023-11-22T08:13:42;29.67;;;16.27;;
52456;SDS011;38369;52.840;7.082;2023-11-22T08:16:10;36.70;;;21.48;;
52456;SDS011;38369;52.840;7.082;2023-11-22T08:18:38;39.53;;;21.13;;
52456;SDS011;38369;52.840;7.082;2023-11-22T08:21:04;45.88;;;23.33;;
52456;SDS011;38369;52.840;7.082;2023-11-22T08:23:30;34.10;;;20.38;;
52456;SDS011;38369;52.840;7.082;2023-11-22T08:25:58;42.22;;;22.05;;
52456;SDS011;38369;52.840;7.082;2023-11-22T08:28:24;40.33;;;21.25;;
52456;SDS011;38369;52.840;7.082;2023-11-22T08:30:51;34.95;;;20.58;;
52456;SDS011;38369;52.840;7.082;2023-11-22T08:33:17;36.50;;;20.58;;
52456;SDS011;38369;52.840;7.082;2023-11-22T08:35:43;39.38;;;21.17;;
52456;SDS011;38369;52.840;7.082;2023-11-22T08:38:15;33.97;;;21.13;;
52456;SDS011;38369;52.840;7.082;2023-11-22T08:40:41;33.90;;;19.17;;
52456;SDS011;38369;52.840;7.082;2023-11-22T08:43:07;29.98;;;19.23;;
52456;SDS011;38369;52.840;7.082;2023-11-22T08:45:33;38.80;;;23.23;;
52456;SDS011;38369;52.840;7.082;2023-11-22T08:48:00;39.65;;;23.95;;
52456;SDS011;38369;52.840;7.082;2023-11-22T08:50:26;34.97;;;21.65;;
52456;SDS011;38369;52.840;7.082;2023-11-22T08:52:52;39.10;;;20.98;;
52456;SDS011;38369;52.840;7.082;2023-11-22T08:55:19;37.80;;;20.85;;
52456;SDS011;38369;52.840;7.082;2023-11-22T08:57:49;33.58;;;19.45;;
52456;SDS011;38369;52.840;7.082;2023-11-22T09:00:18;35.83;;;19.42;;
52456;SDS011;38369;52.840;7.082;2023-11-22T09:02:48;38.00;;;21.55;;
52456;SDS011;38369;52.840;7.082;2023-11-22T09:05:14;37.25;;;21.02;;
52456;SDS011;38369;52.840;7.082;2023-11-22T09:07:42;36.03;;;19.58;;
52456;SDS011;38369;52.840;7.082;2023-11-22T09:10:09;40.85;;;22.27;;
52456;SDS011;38369;52.840;7.082;2023-11-22T09:12:38;36.30;;;21.77;;
52456;SDS011;38369;52.840;7.082;2023-11-22T09:15:09;35.08;;;19.40;;
52456;SDS011;38369;52.840;7.082;2023-11-22T09:17:39;26.10;;;15.98;;
52456;SDS011;38369;52.840;7.082;2023-11-22T09:20:17;36.53;;;20.55;;
52456;SDS011;38369;52.840;7.082;2023-11-22T09:22:45;38.97;;;20.92;;
52456;SDS011;38369;52.840;7.082;2023-11-22T09:25:14;39.72;;;21.90;;
52456;SDS011;38369;52.840;7.082;2023-11-22T09:27:41;39.60;;;21.52;;
52456;SDS011;38369;52.840;7.082;2023-11-22T09:30:07;45.10;;;23.70;;
52456;SDS011;38369;52.840;7.082;2023-11-22T09:32:42;47.13;;;24.10;;
52456;SDS011;38369;52.840;7.082;2023-11-22T09:35:08;30.98;;;19.90;;
52456;SDS011;38369;52.840;7.082;2023-11-22T09:37:34;32.55;;;19.45;;
52456;SDS011;38369;52.840;7.082;2023-11-22T09:40:03;35.65;;;20.83;;
52456;SDS011;38369;52.840;7.082;2023-11-22T09:42:33;33.42;;;20.45;;
52456;SDS011;38369;52.840;7.082;2023-11-22T09:44:59;34.78;;;20.25;;
52456;SDS011;38369;52.840;7.082;2023-11-22T09:47:26;30.85;;;20.20;;
52456;SDS011;38369;52.840;7.082;2023-11-22T09:49:53;35.53;;;19.92;;
52456;SDS011;38369;52.840;7.082;2023-11-22T09:52:20;30.38;;;18.75;;
52456;SDS011;38369;52.840;7.082;2023-11-22T09:54:48;29.83;;;18.08;;
52456;SDS011;38369;52.840;7.082;2023-11-22T09:57:15;31.85;;;18.45;;
52456;SDS011;38369;52.840;7.082;2023-11-22T09:59:43;30.52;;;17.98;;
52456;SDS011;38369;52.840;7.082;2023-11-22T10:02:10;28.05;;;17.75;;
52456;SDS011;38369;52.840;7.082;2023-11-22T10:04:36;30.80;;;17.88;;
52456;SDS011;38369;52.840;7.082;2023-11-22T10:07:03;26.90;;;16.80;;
52456;SDS011;38369;52.840;7.082;2023-11-22T10:09:29;27.33;;;17.08;;
52456;SDS011;38369;52.840;7.082;2023-11-22T10:12:01;26.13;;;16.90;;
52456;SDS011;38369;52.840;7.082;2023-11-22T10:14:27;26.05;;;16.10;;
52456;SDS011;38369;52.840;7.082;2023-11-22T10:17:00;28.42;;;15.75;;
52456;SDS011;38369;52.840;7.082;2023-11-22T10:19:26;25.35;;;15.38;;
52456;SDS011;38369;52.840;7.082;2023-11-22T10:22:06;23.70;;;16.30;;
52456;SDS011;38369;52.840;7.082;2023-11-22T10:24:33;25.70;;;15.52;;
52456;SDS011;38369;52.840;7.082;2023-11-22T10:27:02;23.17;;;15.45;;
52456;SDS011;38369;52.840;7.082;2023-11-22T10:29:28;26.45;;;15.18;;
52456;SDS011;38369;52.840;7.082;2023-11-22T10:31:54;20.90;;;15.35;;
52456;SDS011;38369;52.840;7.082;2023-11-22T10:34:24;22.67;;;16.13;;
52456;SDS011;38369;52.840;7.082;2023-11-22T10:36:50;22.35;;;14.13;;
52456;SDS011;38369;52.840;7.082;2023-11-22T10:39:20;21.77;;;14.75;;
52456;SDS011;38369;52.840;7.082;2023-11-22T10:41:46;24.05;;;14.93;;
52456;SDS011;38369;52.840;7.082;2023-11-22T10:44:13;21.13;;;14.80;;
52456;SDS011;38369;52.840;7.082;2023-11-22T10:46:41;23.45;;;13.90;;
52456;SDS011;38369;52.840;7.082;2023-11-22T10:49:07;24.30;;;14.95;;
52456;SDS011;38369;52.840;7.082;2023-11-22T10:51:33;24.17;;;13.73;;
52456;SDS011;38369;52.840;7.082;2023-11-22T10:54:00;20.30;;;13.63;;
52456;SDS011;38369;52.840;7.082;2023-11-22T10:56:28;22.75;;;14.23;;
52456;SDS011;38369;52.840;7.082;2023-11-22T10:58:56;20.33;;;12.55;;
52456;SDS011;38369;52.840;7.082;2023-11-22T11:01:26;20.58;;;13.00;;
52456;SDS011;38369;52.840;7.082;2023-11-22T11:06:20;17.98;;;11.30;;
52456;SDS011;38369;52.840;7.082;2023-11-22T11:08:52;18.50;;;11.05;;
52456;SDS011;38369;52.840;7.082;2023-11-22T11:11:18;16.38;;;10.27;;
52456;SDS011;38369;52.840;7.082;2023-11-22T11:13:44;16.02;;;11.13;;
52456;SDS011;38369;52.840;7.082;2023-11-22T11:16:13;15.30;;;10.80;;
52456;SDS011;38369;52.840;7.082;2023-11-22T11:18:39;20.73;;;9.68;;
52456;SDS011;38369;52.840;7.082;2023-11-22T11:21:09;12.32;;;9.52;;
52456;SDS011;38369;52.840;7.082;2023-11-22T11:23:38;14.00;;;10.82;;
52456;SDS011;38369;52.840;7.082;2023-11-22T11:26:17;13.05;;;8.60;;
52456;SDS011;38369;52.840;7.082;2023-11-22T11:28:45;11.88;;;7.63;;
52456;SDS011;38369;52.840;7.082;2023-11-22T11:31:15;8.82;;;7.00;;
52456;SDS011;38369;52.840;7.082;2023-11-22T11:33:53;8.00;;;6.25;;
52456;SDS011;38369;52.840;7.082;2023-11-22T11:36:24;10.90;;;7.03;;
52456;SDS011;38369;52.840;7.082;2023-11-22T11:41:17;10.77;;;5.35;;
52456;SDS011;38369;52.840;7.082;2023-11-22T11:43:46;7.57;;;5.28;;
52456;SDS011;38369;52.840;7.082;2023-11-22T11:46:16;6.68;;;4.97;;
52456;SDS011;38369;52.840;7.082;2023-11-22T11:48:49;8.55;;;6.30;;
52456;SDS011;38369;52.840;7.082;2023-11-22T11:51:25;8.82;;;6.43;;
52456;SDS011;38369;52.840;7.082;2023-11-22T11:53:52;8.60;;;6.03;;
52456;SDS011;38369;52.840;7.082;2023-11-22T11:56:19;6.30;;;5.50;;
52456;SDS011;38369;52.840;7.082;2023-11-22T11:58:45;8.48;;;6.25;;
52456;SDS011;38369;52.840;7.082;2023-11-22T12:01:12;7.47;;;5.78;;
52456;SDS011;38369;52.840;7.082;2023-11-22T12:03:38;7.93;;;5.95;;
52456;SDS011;38369;52.840;7.082;2023-11-22T12:06:05;7.65;;;5.65;;
52456;SDS011;38369;52.840;7.082;2023-11-22T12:08:32;8.20;;;5.32;;
52456;SDS011;38369;52.840;7.082;2023-11-22T12:11:01;7.82;;;5.75;;
52456;SDS011;38369;52.840;7.082;2023-11-22T12:13:29;7.03;;;5.57;;
52456;SDS011;38369;52.840;7.082;2023-11-22T12:15:55;6.95;;;5.28;;
52456;SDS011;38369;52.840;7.082;2023-11-22T12:18:21;7.35;;;5.20;;
52456;SDS011;38369;52.840;7.082;2023-11-22T12:20:58;9.82;;;6.20;;
52456;SDS011;38369;52.840;7.082;2023-11-22T12:23:24;8.27;;;5.63;;
52456;SDS011;38369;52.840;7.082;2023-11-22T12:25:58;6.97;;;4.68;;
52456;SDS011;38369;52.840;7.082;2023-11-22T12:28:29;7.78;;;4.57;;
52456;SDS011;38369;52.840;7.082;2023-11-22T12:31:06;8.40;;;6.10;;
52456;SDS011;38369;52.840;7.082;2023-11-22T12:33:32;7.60;;;5.43;;
52456;SDS011;38369;52.840;7.082;2023-11-22T12:35:58;6.82;;;4.75;;
52456;SDS011;38369;52.840;7.082;2023-11-22T12:38:24;7.43;;;4.63;;
52456;SDS011;38369;52.840;7.082;2023-11-22T12:40:56;7.22;;;5.15;;
52456;SDS011;38369;52.840;7.082;2023-11-22T12:43:23;7.82;;;4.82;;
52456;SDS011;38369;52.840;7.082;2023-11-22T12:46:04;7.55;;;4.60;;
52456;SDS011;38369;52.840;7.082;2023-11-22T12:48:40;7.22;;;5.45;;
52456;SDS011;38369;52.840;7.082;2023-11-22T12:51:16;7.93;;;5.03;;
52456;SDS011;38369;52.840;7.082;2023-11-22T12:53:46;6.28;;;4.25;;
52456;SDS011;38369;52.840;7.082;2023-11-22T12:56:13;6.00;;;4.72;;
52456;SDS011;38369;52.840;7.082;2023-11-22T12:58:39;7.30;;;5.60;;
52456;SDS011;38369;52.840;7.082;2023-11-22T13:01:05;7.00;;;4.55;;
52456;SDS011;38369;52.840;7.082;2023-11-22T13:03:31;7.07;;;5.22;;
52456;SDS011;38369;52.840;7.082;2023-11-22T13:05:58;10.48;;;5.60;;
52456;SDS011;38369;52.840;7.082;2023-11-22T13:08:24;9.95;;;6.47;;
52456;SDS011;38369;52.840;7.082;2023-11-22T13:10:54;8.48;;;5.32;;
52456;SDS011;38369;52.840;7.082;2023-11-22T13:13:23;6.85;;;4.82;;
52456;SDS011;38369;52.840;7.082;2023-11-22T13:15:50;8.93;;;6.60;;
52456;SDS011;38369;52.840;7.082;2023-11-22T13:18:17;6.88;;;5.43;;
52456;SDS011;38369;52.840;7.082;2023-11-22T13:20:43;7.40;;;5.57;;
52456;SDS011;38369;52.840;7.082;2023-11-22T13:23:10;10.52;;;6.88;;
52456;SDS011;38369;52.840;7.082;2023-11-22T13:25:37;8.38;;;6.22;;
52456;SDS011;38369;52.840;7.082;2023-11-22T13:28:03;9.10;;;6.40;;
52456;SDS011;38369;52.840;7.082;2023-11-22T13:30:31;10.95;;;6.72;;
52456;SDS011;38369;52.840;7.082;2023-11-22T13:32:57;7.40;;;5.90;;
52456;SDS011;38369;52.840;7.082;2023-11-22T13:35:23;7.22;;;6.20;;
52456;SDS011;38369;52.840;7.082;2023-11-22T13:37:52;9.38;;;6.47;;
52456;SDS011;38369;52.840;7.082;2023-11-22T13:40:19;10.70;;;8.40;;
52456;SDS011;38369;52.840;7.082;2023-11-22T13:42:50;10.40;;;7.68;;
52456;SDS011;38369;52.840;7.082;2023-11-22T13:45:19;8.85;;;6.95;;
52456;SDS011;38369;52.840;7.082;2023-11-22T13:47:50;11.18;;;7.72;;
52456;SDS011;38369;52.840;7.082;2023-11-22T13:50:19;8.45;;;6.60;;
52456;SDS011;38369;52.840;7.082;2023-11-22T13:52:45;10.52;;;7.45;;
52456;SDS011;38369;52.840;7.082;2023-11-22T13:55:12;9.98;;;6.40;;
52456;SDS011;38369;52.840;7.082;2023-11-22T13:57:38;9.85;;;7.18;;
52456;SDS011;38369;52.840;7.082;2023-11-22T14:00:05;10.70;;;7.72;;
52456;SDS011;38369;52.840;7.082;2023-11-22T14:02:36;11.15;;;7.25;;
52456;SDS011;38369;52.840;7.082;2023-11-22T14:05:03;9.25;;;6.28;;
52456;SDS011;38369;52.840;7.082;2023-11-22T14:07:35;8.95;;;7.18;;
52456;SDS011;38369;52.840;7.082;2023-11-22T14:10:05;8.45;;;6.90;;
52456;SDS011;38369;52.840;7.082;2023-11-22T14:12:31;8.07;;;6.40;;
52456;SDS011;38369;52.840;7.082;2023-11-22T14:14:58;8.48;;;7.13;;
52456;SDS011;38369;52.840;7.082;2023-11-22T14:17:24;10.05;;;6.30;;
52456;SDS011;38369;52.840;7.082;2023-11-22T14:19:51;10.02;;;6.82;;
52456;SDS011;38369;52.840;7.082;2023-11-22T14:22:17;8.00;;;6.32;;
52456;SDS011;38369;52.840;7.082;2023-11-22T14:24:43;10.57;;;7.40;;
52456;SDS011;38369;52.840;7.082;2023-11-22T14:27:11;8.75;;;5.88;;
52456;SDS011;38369;52.840;7.082;2023-11-22T14:29:37;6.82;;;5.72;;
52456;SDS011;38369;52.840;7.082;2023-11-22T14:32:04;9.25;;;6.82;;